createdAt,value
2019-06-27T00:01:07.652Z,25.75
2019-06-27T00:03:34.827Z,25.66
2019-06-27T00:06:02.154Z,25.60
2019-06-27T00:08:30.848Z,25.53
2019-06-27T00:10:59.258Z,25.42
2019-06-27T00:13:26.829Z,25.37
2019-06-27T00:15:54.027Z,25.37
2019-06-27T00:18:21.214Z,25.29
2019-06-27T00:20:48.305Z,25.23
2019-06-27T00:23:15.572Z,25.22
2019-06-27T00:25:42.824Z,25.18
2019-06-27T00:28:10.084Z,25.19
2019-06-27T00:30:37.161Z,25.19
2019-06-27T00:33:04.281Z,25.11
2019-06-27T00:35:31.341Z,25.12
2019-06-27T00:37:58.512Z,25.07
2019-06-27T00:40:25.770Z,25.02
2019-06-27T00:42:52.965Z,24.92
2019-06-27T00:45:20.285Z,24.85
2019-06-27T00:47:47.422Z,24.80
2019-06-27T00:50:15.166Z,24.79
2019-06-27T00:52:42.380Z,24.78
2019-06-27T00:55:09.572Z,24.73
2019-06-27T00:57:36.778Z,24.72
2019-06-27T01:00:04.998Z,24.75
2019-06-27T01:02:32.218Z,24.69
2019-06-27T01:04:59.411Z,24.63
2019-06-27T01:07:26.910Z,24.58
2019-06-27T01:09:54.107Z,24.59
2019-06-27T01:12:21.294Z,24.54
2019-06-27T01:14:48.481Z,24.46
2019-06-27T01:17:16.070Z,24.40
2019-06-27T01:19:43.239Z,24.53
2019-06-27T01:22:10.411Z,24.49
2019-06-27T01:24:37.660Z,24.41
2019-06-27T01:27:04.808Z,24.42
2019-06-27T01:29:32.070Z,24.40
2019-06-27T01:31:59.421Z,24.42
2019-06-27T01:34:26.572Z,24.33
2019-06-27T01:36:53.815Z,24.28
2019-06-27T01:39:21.004Z,24.22
2019-06-27T01:41:48.347Z,24.19
2019-06-27T01:44:41.786Z,24.15
2019-06-27T01:47:09.453Z,24.09
2019-06-27T01:49:36.580Z,24.02
2019-06-27T01:52:04.037Z,23.93
2019-06-27T01:54:31.513Z,23.91
2019-06-27T01:56:58.706Z,23.86
2019-06-27T01:59:25.937Z,23.90
2019-06-27T02:01:53.182Z,23.92
2019-06-27T02:04:20.655Z,23.82
2019-06-27T02:06:47.989Z,23.85
2019-06-27T02:09:15.152Z,23.81
2019-06-27T02:11:42.249Z,23.76
2019-06-27T02:14:09.475Z,23.79
2019-06-27T02:16:37.055Z,23.71
2019-06-27T02:19:04.323Z,23.65
2019-06-27T02:21:31.577Z,23.60
2019-06-27T02:23:58.856Z,23.61
2019-06-27T02:26:26.053Z,23.56
2019-06-27T02:28:53.704Z,23.54
2019-06-27T02:31:20.796Z,23.54
2019-06-27T02:33:48.003Z,23.50
2019-06-27T02:36:15.437Z,23.45
2019-06-27T02:38:42.635Z,23.42
2019-06-27T02:41:09.830Z,23.41
2019-06-27T02:43:37.135Z,23.34
2019-06-27T02:46:04.461Z,23.35
2019-06-27T02:48:31.817Z,23.27
2019-06-27T02:50:59.214Z,23.18
2019-06-27T02:53:26.465Z,23.20
2019-06-27T02:55:53.729Z,23.26
2019-06-27T02:58:31.065Z,23.22
2019-06-27T03:00:50.733Z,23.14
2019-06-27T03:03:18.069Z,23.07
2019-06-27T03:05:45.206Z,22.96
2019-06-27T03:08:12.941Z,22.94
2019-06-27T03:10:40.163Z,22.94
2019-06-27T03:13:07.233Z,22.99
2019-06-27T03:15:34.439Z,22.97
2019-06-27T03:18:01.585Z,22.93
2019-06-27T03:20:29.119Z,22.85
2019-06-27T03:22:56.577Z,22.78
2019-06-27T03:25:23.793Z,22.68
2019-06-27T03:27:51.522Z,22.66
2019-06-27T03:30:18.997Z,22.64
2019-06-27T03:32:46.410Z,22.63
2019-06-27T03:35:13.596Z,22.63
2019-06-27T03:37:41.114Z,22.65
2019-06-27T03:40:09.495Z,22.64
2019-06-27T03:42:36.713Z,22.65
2019-06-27T03:45:04.373Z,22.66
2019-06-27T03:47:31.882Z,22.73
2019-06-27T03:49:59.127Z,22.77
2019-06-27T03:52:26.485Z,22.78
2019-06-27T03:54:53.853Z,22.80
2019-06-27T03:57:22.864Z,22.82
2019-06-27T03:59:49.996Z,22.86
2019-06-27T04:02:17.292Z,22.94
2019-06-27T04:04:44.474Z,22.98
2019-06-27T04:07:11.663Z,23.06
2019-06-27T04:09:39.262Z,23.10
2019-06-27T04:12:06.596Z,23.18
2019-06-27T04:14:33.879Z,23.23
2019-06-27T04:17:01.045Z,23.30
2019-06-27T04:19:28.347Z,23.44
2019-06-27T04:21:55.519Z,23.63
2019-06-27T04:24:22.777Z,23.69
2019-06-27T04:26:50.084Z,23.70
2019-06-27T04:29:33.001Z,23.78
2019-06-27T04:31:46.747Z,23.91
2019-06-27T04:34:19.254Z,24.07
2019-06-27T04:36:43.119Z,24.98
2019-06-27T04:39:10.452Z,26.19
2019-06-27T04:41:38.115Z,27.13
2019-06-27T04:44:05.311Z,27.76
2019-06-27T04:46:32.480Z,28.61
2019-06-27T04:49:00.213Z,29.48
2019-06-27T04:51:27.497Z,29.80
2019-06-27T04:53:54.741Z,29.57
2019-06-27T04:56:23.281Z,29.44
2019-06-27T04:58:50.809Z,30.14
2019-06-27T05:01:17.998Z,30.32
2019-06-27T05:03:45.180Z,30.31
2019-06-27T05:06:12.510Z,30.13
2019-06-27T05:08:39.714Z,30.93
2019-06-27T05:11:06.939Z,31.19
2019-06-27T05:13:34.133Z,31.50
2019-06-27T05:16:01.785Z,32.22
2019-06-27T05:18:29.059Z,32.58
2019-06-27T05:20:56.420Z,32.74
2019-06-27T05:23:23.711Z,33.63
2019-06-27T05:25:51.425Z,34.40
2019-06-27T05:28:18.680Z,35.17
2019-06-27T05:30:45.911Z,35.37
2019-06-27T05:33:13.120Z,34.68
2019-06-27T05:35:40.202Z,35.15
2019-06-27T05:38:07.404Z,33.52
2019-06-27T05:40:34.835Z,33.45
2019-06-27T05:43:02.135Z,33.29
2019-06-27T05:45:29.662Z,33.81
2019-06-27T05:47:56.776Z,33.83
2019-06-27T05:50:24.072Z,33.43
2019-06-27T05:52:51.286Z,31.07
2019-06-27T05:55:18.857Z,29.80
2019-06-27T05:57:46.104Z,29.11
2019-06-27T06:00:27.563Z,28.77
2019-06-27T06:02:44.076Z,28.35
2019-06-27T06:05:11.170Z,28.23
2019-06-27T06:07:39.009Z,31.13
2019-06-27T06:10:06.485Z,34.39
2019-06-27T06:12:33.816Z,34.08
2019-06-27T06:15:00.993Z,32.19
2019-06-27T06:17:28.941Z,32.77
2019-06-27T06:19:56.213Z,35.30
2019-06-27T06:22:23.458Z,36.90
2019-06-27T06:24:51.234Z,36.11
2019-06-27T06:27:18.628Z,34.25
2019-06-27T06:29:45.986Z,34.14
2019-06-27T06:32:14.308Z,33.97
2019-06-27T06:34:41.497Z,34.50
2019-06-27T06:37:09.249Z,34.99
2019-06-27T06:39:36.497Z,34.56
2019-06-27T06:42:03.608Z,33.54
2019-06-27T06:44:30.895Z,32.43
2019-06-27T06:46:58.035Z,32.73
2019-06-27T06:49:25.231Z,33.63
2019-06-27T06:51:52.333Z,33.61
2019-06-27T06:54:19.527Z,34.44
2019-06-27T06:56:46.728Z,35.09
2019-06-27T06:59:14.215Z,37.02
2019-06-27T07:01:41.351Z,39.60
2019-06-27T07:04:08.877Z,42.00
2019-06-27T07:06:36.179Z,42.18
2019-06-27T07:09:04.501Z,41.65
2019-06-27T07:11:33.874Z,41.23
2019-06-27T07:14:01.062Z,41.78
2019-06-27T07:16:28.401Z,42.49
2019-06-27T07:18:55.937Z,43.30
2019-06-27T07:21:23.122Z,43.94
2019-06-27T07:23:50.237Z,45.43
2019-06-27T07:26:17.453Z,45.56
2019-06-27T07:28:44.554Z,46.41
2019-06-27T07:31:17.882Z,45.28
2019-06-27T07:33:41.068Z,45.43
2019-06-27T07:36:08.819Z,47.29
2019-06-27T07:38:36.046Z,48.36
2019-06-27T07:41:03.236Z,49.90
2019-06-27T07:43:30.421Z,51.59
2019-06-27T07:45:57.724Z,52.88
2019-06-27T07:48:24.998Z,52.28
2019-06-27T07:50:52.087Z,50.67
2019-06-27T07:53:19.274Z,48.72
2019-06-27T07:55:46.526Z,49.10
2019-06-27T07:58:13.677Z,47.88
2019-06-27T08:00:40.976Z,48.51
2019-06-27T08:03:08.032Z,49.22
2019-06-27T08:05:35.238Z,48.42
2019-06-27T08:08:02.427Z,47.78
2019-06-27T08:10:30.627Z,46.93
2019-06-27T08:12:57.740Z,47.49
2019-06-27T08:15:25.296Z,48.38
2019-06-27T08:17:52.372Z,48.96
2019-06-27T08:20:19.536Z,49.67
2019-06-27T08:22:46.747Z,49.66
2019-06-27T08:25:14.230Z,49.36
2019-06-27T08:27:41.388Z,49.25
2019-06-27T08:30:09.308Z,49.73
2019-06-27T08:32:36.551Z,49.80
2019-06-27T08:35:04.576Z,48.90
2019-06-27T08:37:31.816Z,48.49
2019-06-27T08:39:58.994Z,47.35
2019-06-27T08:42:26.214Z,46.74
2019-06-27T08:44:53.644Z,47.76
2019-06-27T08:47:20.813Z,48.41
2019-06-27T08:49:47.965Z,49.03
2019-06-27T08:52:15.055Z,48.75
2019-06-27T08:54:42.341Z,50.07
2019-06-27T08:57:09.400Z,50.76
2019-06-27T08:59:37.019Z,51.68
2019-06-27T09:02:09.051Z,52.58
2019-06-27T09:04:33.658Z,51.86
2019-06-27T09:07:00.842Z,51.22
2019-06-27T09:09:28.030Z,51.42
2019-06-27T09:11:55.300Z,52.02
2019-06-27T09:14:22.603Z,51.32
2019-06-27T09:16:49.863Z,49.90
2019-06-27T09:19:17.141Z,50.46
2019-06-27T09:21:44.536Z,50.96
2019-06-27T09:24:11.827Z,51.34
2019-06-27T09:26:38.995Z,49.60
2019-06-27T09:29:06.263Z,47.76
2019-06-27T09:31:33.421Z,47.22
2019-06-27T09:34:00.488Z,47.05
2019-06-27T09:36:28.079Z,46.91
2019-06-27T09:38:55.294Z,47.80
2019-06-27T09:41:22.663Z,49.18
2019-06-27T09:43:50.070Z,48.52
2019-06-27T09:46:17.260Z,48.50
2019-06-27T09:48:44.432Z,47.57
2019-06-27T09:51:11.634Z,46.56
2019-06-27T09:53:39.033Z,45.87
2019-06-27T09:56:06.223Z,45.47
2019-06-27T09:58:33.485Z,46.20
2019-06-27T10:01:00.671Z,45.48
2019-06-27T10:03:27.859Z,45.52
2019-06-27T10:05:55.037Z,45.05
2019-06-27T10:08:22.780Z,44.24
2019-06-27T10:10:50.063Z,42.50
2019-06-27T10:13:17.428Z,41.12
2019-06-27T10:15:44.498Z,39.48
2019-06-27T10:18:11.968Z,37.38
2019-06-27T10:20:39.169Z,34.91
2019-06-27T10:23:06.416Z,32.90
2019-06-27T10:25:33.645Z,31.96
2019-06-27T10:28:00.764Z,31.32
2019-06-27T10:30:28.598Z,30.54
2019-06-27T10:32:59.774Z,30.05
2019-06-27T10:35:25.195Z,29.95
2019-06-27T10:37:52.366Z,29.57
2019-06-27T10:40:20.728Z,29.14
2019-06-27T10:42:47.979Z,29.07
2019-06-27T10:45:15.286Z,28.99
2019-06-27T10:47:42.403Z,28.80
2019-06-27T10:50:10.799Z,28.76
2019-06-27T10:52:37.976Z,28.83
2019-06-27T10:55:05.964Z,28.88
2019-06-27T10:57:33.091Z,28.90
2019-06-27T11:00:00.188Z,28.87
2019-06-27T11:02:27.282Z,28.87
2019-06-27T11:04:54.603Z,28.83
2019-06-27T11:07:21.838Z,28.76
2019-06-27T11:09:50.302Z,28.75
2019-06-27T11:12:17.734Z,28.76
2019-06-27T11:14:58.255Z,28.81
2019-06-27T11:17:14.002Z,28.72
2019-06-27T11:19:51.906Z,28.67
2019-06-27T11:22:10.657Z,28.67
2019-06-27T11:24:38.211Z,28.72
2019-06-27T11:27:05.434Z,28.79
2019-06-27T11:29:32.635Z,28.72
2019-06-27T11:31:59.837Z,28.74
2019-06-27T11:34:27.953Z,28.81
2019-06-27T11:36:55.215Z,28.89
2019-06-27T11:39:23.465Z,28.87
2019-06-27T11:41:50.870Z,28.80
2019-06-27T11:44:18.009Z,28.86
2019-06-27T11:46:45.179Z,28.86
2019-06-27T11:49:12.391Z,28.82
2019-06-27T11:51:39.753Z,28.88
2019-06-27T11:54:06.979Z,28.89
2019-06-27T11:56:34.725Z,28.85
2019-06-27T11:59:01.926Z,28.93
2019-06-27T12:01:29.229Z,28.97
2019-06-27T12:03:56.448Z,29.00
2019-06-27T12:06:23.979Z,29.03
2019-06-27T12:08:51.223Z,29.05
2019-06-27T12:11:18.539Z,29.05
2019-06-27T12:13:45.726Z,29.08
2019-06-27T12:16:12.876Z,29.03
2019-06-27T12:18:40.121Z,29.15
2019-06-27T12:21:07.399Z,29.27
2019-06-27T12:23:34.564Z,29.33
2019-06-27T12:26:01.695Z,29.34
2019-06-27T12:28:28.969Z,29.39
2019-06-27T12:30:56.150Z,29.51
2019-06-27T12:33:23.810Z,29.50
2019-06-27T12:35:50.881Z,29.48
2019-06-27T12:38:18.055Z,29.45
2019-06-27T12:40:45.273Z,29.44
2019-06-27T12:43:14.533Z,29.51
2019-06-27T12:45:42.038Z,29.54
2019-06-27T12:48:09.146Z,29.60
2019-06-27T12:50:36.188Z,29.60
2019-06-27T12:53:03.379Z,29.59
2019-06-27T12:55:30.568Z,29.51
2019-06-27T12:57:57.760Z,29.45
2019-06-27T13:00:25.090Z,29.43
2019-06-27T13:02:52.508Z,29.51
2019-06-27T13:05:20.770Z,29.53
2019-06-27T13:07:47.996Z,29.38
2019-06-27T13:10:15.865Z,29.52
2019-06-27T13:12:42.949Z,29.65
2019-06-27T13:15:11.510Z,29.64
2019-06-27T13:17:38.618Z,29.65
2019-06-27T13:20:06.894Z,29.62
2019-06-27T13:22:34.261Z,29.68
2019-06-27T13:25:01.679Z,29.71
2019-06-27T13:27:29.210Z,29.69
2019-06-27T13:29:56.322Z,29.71
2019-06-27T13:32:25.471Z,29.77
2019-06-27T13:34:52.676Z,29.77
2019-06-27T13:37:20.170Z,29.74
2019-06-27T13:39:47.306Z,29.87
2019-06-27T13:42:14.547Z,29.75
2019-06-27T13:44:41.728Z,29.70
2019-06-27T13:47:08.988Z,29.76
2019-06-27T13:49:36.148Z,29.84
2019-06-27T13:52:03.360Z,30.00
2019-06-27T13:54:30.808Z,29.93
2019-06-27T13:56:58.376Z,29.93
2019-06-27T13:59:25.527Z,29.96
2019-06-27T14:01:52.895Z,29.97
2019-06-27T14:04:24.009Z,29.97
2019-06-27T14:06:49.207Z,29.97
2019-06-27T14:09:23.145Z,29.96
2019-06-27T14:11:45.491Z,29.96
2019-06-27T14:14:12.998Z,29.98
2019-06-27T14:16:40.541Z,29.94
2019-06-27T14:19:07.711Z,29.99
2019-06-27T14:21:34.893Z,29.93
2019-06-27T14:24:02.068Z,29.93
2019-06-27T14:26:29.476Z,29.99
2019-06-27T14:28:57.126Z,30.05
2019-06-27T14:31:24.435Z,30.06
2019-06-27T14:33:51.618Z,30.09
2019-06-27T14:36:18.717Z,30.14
2019-06-27T14:38:45.934Z,30.13
2019-06-27T14:41:13.098Z,30.04
2019-06-27T14:43:40.699Z,30.08
2019-06-27T14:46:07.928Z,30.09
2019-06-27T14:48:35.499Z,30.12
2019-06-27T14:51:02.978Z,30.10
2019-06-27T14:53:30.264Z,30.10
2019-06-27T14:55:57.419Z,30.14
2019-06-27T14:58:24.626Z,30.19
2019-06-27T15:00:51.837Z,30.29
2019-06-27T15:03:18.999Z,30.20
2019-06-27T15:05:46.091Z,30.13
2019-06-27T15:08:13.318Z,30.20
2019-06-27T15:10:40.490Z,30.20
2019-06-27T15:13:07.927Z,30.26
2019-06-27T15:15:35.524Z,30.23
2019-06-27T15:18:02.662Z,30.25
2019-06-27T15:20:29.818Z,30.30
2019-06-27T15:22:56.986Z,30.28
2019-06-27T15:25:27.939Z,30.32
2019-06-27T15:27:53.405Z,30.29
2019-06-27T15:30:20.983Z,30.22
2019-06-27T15:32:48.869Z,30.20
2019-06-27T15:35:16.128Z,30.25
2019-06-27T15:37:43.554Z,30.25
2019-06-27T15:40:12.350Z,30.22
2019-06-27T15:42:39.508Z,30.27
2019-06-27T15:45:07.589Z,30.28
2019-06-27T15:47:34.801Z,30.28
2019-06-27T15:50:02.016Z,30.19
2019-06-27T15:52:29.452Z,30.16
2019-06-27T15:54:56.513Z,30.21
2019-06-27T15:57:23.815Z,30.13
2019-06-27T15:59:50.977Z,30.05
2019-06-27T16:02:18.144Z,30.00
2019-06-27T16:04:45.337Z,30.13
2019-06-27T16:07:12.738Z,30.11
2019-06-27T16:09:40.579Z,30.10
2019-06-27T16:12:08.157Z,30.10
2019-06-27T16:14:35.368Z,30.05
2019-06-27T16:17:03.038Z,30.06
2019-06-27T16:19:30.346Z,30.01
2019-06-27T16:21:57.576Z,29.97
2019-06-27T16:24:24.851Z,29.93
2019-06-27T16:26:52.175Z,29.86
2019-06-27T16:29:19.566Z,29.84
2019-06-27T16:31:46.740Z,29.76
2019-06-27T16:34:13.960Z,29.66
2019-06-27T16:36:41.276Z,29.62
2019-06-27T16:39:08.492Z,29.58
2019-06-27T16:41:35.573Z,29.52
2019-06-27T16:44:02.840Z,29.47
2019-06-27T16:46:30.138Z,29.41
2019-06-27T16:48:57.389Z,29.43
2019-06-27T16:51:24.936Z,29.40
2019-06-27T16:53:52.570Z,29.42
2019-06-27T16:56:19.875Z,29.53
2019-06-27T16:58:47.076Z,29.46
2019-06-27T17:01:14.672Z,29.37
2019-06-27T17:03:41.862Z,29.27
2019-06-27T17:06:09.218Z,29.22
2019-06-27T17:08:38.230Z,29.13
2019-06-27T17:11:05.783Z,29.11
2019-06-27T17:13:32.994Z,29.00
2019-06-27T17:16:00.210Z,28.96
2019-06-27T17:18:27.493Z,28.87
2019-06-27T17:20:54.982Z,28.77
2019-06-27T17:23:22.052Z,28.75
2019-06-27T17:25:49.281Z,28.66
2019-06-27T17:28:16.538Z,28.69
2019-06-27T17:30:44.056Z,28.69
2019-06-27T17:33:11.244Z,28.77
2019-06-27T17:35:38.365Z,28.72
2019-06-27T17:38:05.562Z,28.73
2019-06-27T17:40:32.710Z,28.78
2019-06-27T17:42:59.929Z,28.83
2019-06-27T17:45:27.092Z,28.72
2019-06-27T17:47:54.664Z,28.56
2019-06-27T17:50:21.892Z,28.42
2019-06-27T17:52:49.218Z,28.47
2019-06-27T17:55:16.742Z,28.33
2019-06-27T17:57:46.924Z,28.21
2019-06-27T18:00:13.287Z,28.42
2019-06-27T18:02:40.586Z,28.39
2019-06-27T18:05:07.886Z,28.31
2019-06-27T18:07:35.078Z,28.29
2019-06-27T18:10:02.797Z,28.17
2019-06-27T18:12:30.388Z,28.03
2019-06-27T18:14:58.058Z,27.97
2019-06-27T18:17:33.715Z,27.83
2019-06-27T18:19:54.362Z,27.72
2019-06-27T18:22:21.639Z,27.61
2019-06-27T18:24:48.880Z,27.54
2019-06-27T18:27:16.044Z,27.55
2019-06-27T18:29:43.229Z,27.55
2019-06-27T18:32:10.454Z,27.73
2019-06-27T18:34:37.773Z,27.84
2019-06-27T18:37:05.377Z,27.89
2019-06-27T18:39:32.573Z,27.75
2019-06-27T18:41:59.699Z,27.58
2019-06-27T18:44:26.885Z,27.42
2019-06-27T18:46:54.065Z,27.21
2019-06-27T18:49:21.290Z,27.04
2019-06-27T18:51:48.432Z,26.91
2019-06-27T18:54:15.612Z,26.71
2019-06-27T18:56:42.873Z,26.69
2019-06-27T18:59:10.417Z,26.65
2019-06-27T19:01:37.642Z,26.51
2019-06-27T19:04:04.851Z,26.44
2019-06-27T19:06:32.470Z,26.27
2019-06-27T19:08:59.771Z,26.13
2019-06-27T19:11:27.831Z,26.12
2019-06-27T19:13:55.042Z,26.03
2019-06-27T19:16:22.581Z,25.95
2019-06-27T19:18:54.262Z,25.83
2019-06-27T19:21:29.628Z,25.61
2019-06-27T19:24:08.076Z,25.50
2019-06-27T19:26:35.264Z,25.36
2019-06-27T19:29:02.635Z,25.31
2019-06-27T19:31:29.942Z,25.16
2019-06-27T19:33:57.195Z,25.19
2019-06-27T19:36:24.447Z,25.26
2019-06-27T19:38:52.181Z,25.15
2019-06-27T19:41:19.394Z,24.95
2019-06-27T19:43:46.741Z,24.93
2019-06-27T19:46:14.436Z,24.74
2019-06-27T19:48:45.495Z,24.52
2019-06-27T19:51:11.363Z,24.52
2019-06-27T19:53:38.653Z,24.42
2019-06-27T19:56:05.897Z,24.24
2019-06-27T19:58:33.451Z,24.18
2019-06-27T20:01:00.810Z,24.10
2019-06-27T20:03:28.569Z,23.93
2019-06-27T20:05:55.822Z,23.86
2019-06-27T20:08:23.106Z,23.79
2019-06-27T20:10:50.410Z,23.72
2019-06-27T20:13:18.022Z,23.68
2019-06-27T20:15:45.242Z,23.65
2019-06-27T20:18:15.638Z,23.67
2019-06-27T20:20:43.149Z,23.53
2019-06-27T20:23:17.167Z,23.42
2019-06-27T20:25:44.799Z,23.27
2019-06-27T20:28:12.041Z,23.24
2019-06-27T20:30:39.711Z,23.24
2019-06-27T20:33:07.484Z,23.10
2019-06-27T20:35:35.953Z,23.04
2019-06-27T20:38:03.327Z,22.96
2019-06-27T20:40:30.677Z,22.88
2019-06-27T20:42:59.280Z,22.73
2019-06-27T20:45:26.606Z,22.68
2019-06-27T20:47:55.726Z,22.57
2019-06-27T20:50:23.629Z,22.58
2019-06-27T20:52:52.234Z,22.59
2019-06-27T20:55:19.839Z,22.46
2019-06-27T20:57:47.608Z,22.44
2019-06-27T21:00:16.048Z,22.48
2019-06-27T21:02:44.051Z,22.62
2019-06-27T21:05:11.713Z,22.70
2019-06-27T21:07:39.005Z,22.55
2019-06-27T21:10:06.789Z,22.45
2019-06-27T21:12:34.225Z,22.46
2019-06-27T21:15:01.658Z,22.42
2019-06-27T21:17:29.313Z,22.28
2019-06-27T21:19:56.546Z,22.26
2019-06-27T21:22:23.911Z,22.15
2019-06-27T21:24:51.150Z,22.00
2019-06-27T21:27:18.409Z,21.81
2019-06-27T21:29:45.881Z,21.68
2019-06-27T21:32:13.161Z,21.50
2019-06-27T21:34:40.438Z,21.65
2019-06-27T21:37:08.110Z,21.92
2019-06-27T21:39:35.457Z,21.97
2019-06-27T21:42:02.775Z,22.20
2019-06-27T21:44:30.025Z,22.11
2019-06-27T21:46:57.303Z,21.92
2019-06-27T21:49:24.463Z,21.81
2019-06-27T21:51:52.061Z,21.85
2019-06-27T21:54:20.580Z,21.62
2019-06-27T21:56:47.902Z,21.50
2019-06-27T21:59:15.296Z,21.63
2019-06-27T22:01:43.068Z,21.53
2019-06-27T22:04:10.951Z,21.59
2019-06-27T22:06:38.210Z,21.72
2019-06-27T22:09:06.323Z,21.52
2019-06-27T22:11:33.834Z,21.28
2019-06-27T22:14:01.266Z,21.18
2019-06-27T22:16:28.505Z,21.08
2019-06-27T22:18:57.756Z,21.13
2019-06-27T22:21:25.352Z,21.01
2019-06-27T22:23:52.715Z,20.94
2019-06-27T22:26:19.982Z,20.88
2019-06-27T22:28:48.145Z,20.83
2019-06-27T22:31:15.383Z,20.86
2019-06-27T22:33:42.894Z,20.85
2019-06-27T22:36:10.126Z,20.82
2019-06-27T22:38:55.587Z,20.73
2019-06-27T22:41:59.183Z,20.71
2019-06-27T22:45:03.424Z,20.79
2019-06-27T22:48:07.271Z,20.63
2019-06-27T22:51:21.882Z,20.82
2019-06-27T22:53:56.789Z,20.72
2019-06-27T22:56:25.023Z,20.59
2019-06-27T22:58:52.358Z,20.52
2019-06-27T23:01:19.768Z,20.56
2019-06-27T23:03:46.968Z,20.55
2019-06-27T23:06:15.325Z,20.53
2019-06-27T23:08:42.665Z,20.42
2019-06-27T23:11:09.885Z,20.44
2019-06-27T23:13:37.183Z,20.48
2019-06-27T23:16:04.407Z,20.47
2019-06-27T23:18:31.655Z,20.57
2019-06-27T23:20:58.759Z,20.38
2019-06-27T23:23:25.926Z,20.25
2019-06-27T23:25:53.113Z,20.23
2019-06-27T23:28:20.544Z,20.10
2019-06-27T23:30:48.560Z,20.04
2019-06-27T23:33:16.001Z,20.09
2019-06-27T23:35:43.119Z,20.04
2019-06-27T23:38:10.444Z,20.04
2019-06-27T23:40:37.687Z,19.95
2019-06-27T23:43:04.940Z,20.08
2019-06-27T23:45:32.189Z,19.92
2019-06-27T23:47:59.788Z,19.79
2019-06-27T23:50:27.047Z,19.74
2019-06-27T23:52:54.311Z,19.70
2019-06-27T23:55:22.578Z,19.72
2019-06-27T23:57:50.135Z,19.66
